Time;durP1;ratioP1;P1;durP2;ratioP2;P2;SDS_P1;SDS_P2;PMS_P1;PMS_P2;Temp;Humidity;BMP_temperature;BMP_pressure;BME280_temperature;BME280_humidity;BME280_pressure;Samples;Min_cycle;Max_cycle;Signal;HPM_P1;HPM_P2
2022/06/27 00:04:03;;;;;;;;;;;18.30;99.90;;;;;;8354819;28;19924;-71
2022/06/27 00:08:05;;;;;;;;;;;18.30;99.90;;;;;;8354927;28;19921;-71
2022/06/27 00:12:07;;;;;;;;;;;18.30;99.90;;;;;;8333845;28;19921;-72
2022/06/27 00:16:08;;;;;;;;;;;18.20;99.90;;;;;;8338241;28;20318;-72
2022/06/27 00:20:30;;;;;;;;;;;18.20;99.90;;;;;;8354095;28;20026;-72
2022/06/27 00:24:32;;;;;;;;;;;18.20;99.90;;;;;;8359488;28;19939;-72
2022/06/27 00:28:34;;;;;;;;;;;18.20;99.90;;;;;;8344586;28;19928;-71
2022/06/27 00:32:36;;;;;;;;;;;18.20;99.90;;;;;;8360038;28;19983;-72
2022/06/27 00:36:38;;;;;;;;;;;18.20;99.90;;;;;;8357294;28;19959;-72
2022/06/27 00:40:40;;;;;;;;;;;18.20;99.90;;;;;;8333342;28;19932;-72
2022/06/27 00:44:42;;;;;;;;;;;18.20;99.90;;;;;;8351035;28;19924;-72
2022/06/27 00:48:44;;;;;;;;;;;18.10;99.90;;;;;;8361386;28;19931;-72
2022/06/27 00:52:46;;;;;;;;;;;18.10;99.90;;;;;;8362487;28;19921;-73
2022/06/27 00:56:48;;;;;;;;;;;18.10;99.90;;;;;;8330127;28;19925;-72
2022/06/27 01:00:50;;;;;;;;;;;18.00;99.90;;;;;;8358600;28;20423;-71
2022/06/27 01:04:52;;;;;;;;;;;18.00;99.90;;;;;;8358030;28;19921;-72
2022/06/27 01:08:54;;;;;;;;;;;18.00;99.90;;;;;;8348925;28;19927;-72
2022/06/27 01:12:56;;;;;;;;;;;18.00;99.90;;;;;;8342579;28;20303;-71
2022/06/27 01:16:58;;;;;;;;;;;18.00;99.90;;;;;;8344475;28;19921;-72
2022/06/27 01:21:00;;;;;;;;;;;18.00;99.90;;;;;;8364119;28;19927;-72
2022/06/27 01:25:02;;;;;;;;;;;18.00;99.90;;;;;;8358020;28;19925;-72
2022/06/27 01:29:04;;;;;;;;;;;18.00;99.90;;;;;;8359495;28;20308;-71
2022/06/27 01:33:05;;;;;;;;;;;18.00;99.90;;;;;;8352902;28;20402;-71
2022/06/27 01:37:07;;;;;;;;;;;18.00;99.90;;;;;;8326747;28;19928;-72
2022/06/27 01:41:09;;;;;;;;;;;18.00;99.90;;;;;;8367694;28;19977;-71
2022/06/27 01:45:11;;;;;;;;;;;18.00;99.90;;;;;;8336942;28;19928;-72
2022/06/27 01:49:13;;;;;;;;;;;18.00;99.90;;;;;;8357108;28;19921;-72
2022/06/27 01:53:15;;;;;;;;;;;18.00;99.90;;;;;;8340636;28;19924;-72
2022/06/27 01:57:17;;;;;;;;;;;18.00;99.90;;;;;;8360739;28;20000;-72
2022/06/27 02:01:19;;;;;;;;;;;17.90;99.90;;;;;;8353249;28;19966;-71
2022/06/27 02:05:21;;;;;;;;;;;17.90;99.90;;;;;;8359490;28;20287;-72
2022/06/27 02:09:22;;;;;;;;;;;17.90;99.90;;;;;;8361624;28;19924;-72
2022/06/27 02:13:25;;;;;;;;;;;17.90;99.90;;;;;;8360944;28;19921;-72
2022/06/27 02:17:27;;;;;;;;;;;17.90;99.90;;;;;;8352454;28;19924;-72
2022/06/27 02:21:31;;;;;;;;;;;17.90;99.90;;;;;;8353319;28;19924;-72
2022/06/27 02:25:33;;;;;;;;;;;17.90;99.90;;;;;;8347033;28;19920;-72
2022/06/27 02:29:35;;;;;;;;;;;17.90;99.90;;;;;;8350777;28;19921;-72
2022/06/27 02:33:38;;;;;;;;;;;17.90;99.90;;;;;;8346194;28;19928;-72
2022/06/27 02:37:40;;;;;;;;;;;17.90;99.90;;;;;;8360826;28;19924;-72
2022/06/27 02:41:44;;;;;;;;;;;17.80;99.90;;;;;;8341182;28;19928;-72
2022/06/27 02:45:46;;;;;;;;;;;17.80;99.90;;;;;;8337706;28;19925;-72
2022/06/27 02:49:48;;;;;;;;;;;17.80;99.90;;;;;;8350929;28;19924;-72
2022/06/27 02:53:53;;;;;;;;;;;17.70;99.90;;;;;;8349569;28;19924;-72
2022/06/27 02:58:15;;;;;;;;;;;17.70;99.90;;;;;;8331768;28;19936;-72
2022/06/27 03:02:17;;;;;;;;;;;17.70;99.90;;;;;;8350724;28;19920;-72
2022/06/27 03:06:19;;;;;;;;;;;17.60;99.90;;;;;;8348982;28;20376;-72
2022/06/27 03:10:21;;;;;;;;;;;17.60;99.90;;;;;;8335038;28;19935;-72
2022/06/27 03:14:22;;;;;;;;;;;17.60;99.90;;;;;;8350558;28;19920;-71
2022/06/27 03:18:24;;;;;;;;;;;17.50;99.90;;;;;;8342065;28;20146;-72
2022/06/27 03:22:26;;;;;;;;;;;17.50;99.90;;;;;;8352371;28;19929;-71
2022/06/27 03:26:27;;;;;;;;;;;17.40;99.90;;;;;;8357123;28;19920;-72
2022/06/27 03:30:29;;;;;;;;;;;17.40;99.90;;;;;;8374674;28;19921;-72
2022/06/27 03:34:31;;;;;;;;;;;17.40;99.90;;;;;;8351526;28;19921;-72
2022/06/27 03:38:33;;;;;;;;;;;17.30;99.90;;;;;;8350307;28;19929;-71
2022/06/27 03:42:34;;;;;;;;;;;17.30;99.90;;;;;;8358361;28;20276;-71
2022/06/27 03:46:37;;;;;;;;;;;17.20;99.90;;;;;;8327722;28;19924;-71
2022/06/27 03:50:38;;;;;;;;;;;17.20;99.90;;;;;;8355249;28;19929;-72
2022/06/27 03:54:40;;;;;;;;;;;17.20;99.90;;;;;;8358051;28;19927;-72
2022/06/27 03:58:42;;;;;;;;;;;17.20;99.90;;;;;;8331213;28;19920;-72
2022/06/27 04:02:43;;;;;;;;;;;17.20;99.90;;;;;;8365385;28;19921;-71
2022/06/27 04:06:45;;;;;;;;;;;17.20;99.90;;;;;;8345324;28;19921;-71
2022/06/27 04:10:47;;;;;;;;;;;17.10;99.90;;;;;;8344435;28;19921;-72
2022/06/27 04:14:48;;;;;;;;;;;17.10;99.90;;;;;;8346578;28;19921;-72
2022/06/27 04:18:50;;;;;;;;;;;17.10;99.90;;;;;;8345690;28;19928;-72
2022/06/27 04:22:52;;;;;;;;;;;17.10;99.90;;;;;;8350900;28;22088;-72
2022/06/27 04:26:53;;;;;;;;;;;17.10;99.90;;;;;;8318287;28;19920;-71
2022/06/27 04:30:55;;;;;;;;;;;17.20;99.90;;;;;;8352154;28;19928;-72
2022/06/27 04:34:57;;;;;;;;;;;17.20;99.90;;;;;;8347024;28;19924;-72
2022/06/27 04:38:59;;;;;;;;;;;17.20;99.90;;;;;;8338057;28;19920;-72
2022/06/27 04:43:00;;;;;;;;;;;17.30;99.90;;;;;;8323389;28;19932;-72
2022/06/27 04:47:04;;;;;;;;;;;17.40;99.90;;;;;;8346402;28;19925;-72
2022/06/27 04:51:06;;;;;;;;;;;17.50;99.90;;;;;;8348297;28;19940;-72
2022/06/27 04:55:09;;;;;;;;;;;17.60;99.90;;;;;;8354412;28;20333;-72
2022/06/27 04:59:12;;;;;;;;;;;17.60;99.90;;;;;;8358966;28;19947;-72
2022/06/27 05:03:14;;;;;;;;;;;17.60;99.90;;;;;;8353327;28;20372;-72
2022/06/27 05:07:15;;;;;;;;;;;17.70;99.90;;;;;;8365506;28;19934;-72
2022/06/27 05:11:17;;;;;;;;;;;17.70;99.90;;;;;;8362702;28;19931;-72
2022/06/27 05:15:19;;;;;;;;;;;17.70;99.90;;;;;;8352267;28;19932;-72
2022/06/27 05:19:21;;;;;;;;;;;17.70;99.90;;;;;;8353846;28;19929;-72
2022/06/27 05:23:22;;;;;;;;;;;17.70;99.90;;;;;;8359956;28;20395;-72
2022/06/27 05:27:24;;;;;;;;;;;17.70;99.90;;;;;;8335648;28;20312;-72
2022/06/27 05:31:26;;;;;;;;;;;17.70;99.90;;;;;;8361346;28;19943;-73
2022/06/27 05:35:28;;;;;;;;;;;17.70;99.90;;;;;;8348870;28;20039;-72
2022/06/27 05:39:31;;;;;;;;;;;17.70;99.90;;;;;;8343426;28;19975;-72
2022/06/27 05:43:32;;;;;;;;;;;17.70;99.90;;;;;;8352592;28;20355;-72
2022/06/27 05:47:35;;;;;;;;;;;17.80;99.90;;;;;;8340919;28;19921;-72
2022/06/27 05:51:40;;;;;;;;;;;17.80;99.90;;;;;;8355344;28;19955;-72
2022/06/27 05:55:45;;;;;;;;;;;17.90;99.90;;;;;;8328231;28;20362;-72
2022/06/27 05:59:47;;;;;;;;;;;17.90;99.90;;;;;;8343376;28;19983;-72
2022/06/27 06:03:48;;;;;;;;;;;17.90;99.90;;;;;;8357234;28;19943;-72
2022/06/27 06:07:50;;;;;;;;;;;18.00;99.90;;;;;;8348257;28;19927;-72
2022/06/27 06:11:53;;;;;;;;;;;18.00;99.90;;;;;;8325990;28;19928;-72
2022/06/27 06:15:57;;;;;;;;;;;18.00;99.90;;;;;;8322280;28;19928;-72
2022/06/27 06:19:59;;;;;;;;;;;18.00;99.90;;;;;;8328140;28;20019;-72
2022/06/27 06:24:01;;;;;;;;;;;18.00;99.90;;;;;;8354895;28;19921;-72
2022/06/27 06:28:03;;;;;;;;;;;18.10;99.90;;;;;;8340109;28;20378;-72
2022/06/27 06:32:05;;;;;;;;;;;18.10;99.90;;;;;;8345372;28;20099;-72
2022/06/27 06:36:09;;;;;;;;;;;18.10;99.90;;;;;;8374848;28;19925;-72
2022/06/27 06:40:14;;;;;;;;;;;18.10;99.90;;;;;;8356262;28;19924;-73
2022/06/27 06:44:17;;;;;;;;;;;18.10;99.90;;;;;;8334885;28;19925;-72
2022/06/27 06:48:19;;;;;;;;;;;18.20;99.90;;;;;;8340100;28;20474;-72
2022/06/27 06:52:21;;;;;;;;;;;18.10;99.90;;;;;;8327443;28;19997;-72
2022/06/27 06:56:22;;;;;;;;;;;18.20;99.90;;;;;;8327815;28;19928;-72
2022/06/27 07:00:24;;;;;;;;;;;18.20;99.90;;;;;;8334679;28;19932;-72
2022/06/27 07:04:26;;;;;;;;;;;18.20;99.90;;;;;;8335862;28;19921;-72
2022/06/27 07:08:30;;;;;;;;;;;18.20;99.90;;;;;;8310622;28;20007;-72
2022/06/27 07:12:33;;;;;;;;;;;18.30;99.90;;;;;;8330339;28;19932;-72
2022/06/27 07:16:35;;;;;;;;;;;18.30;99.90;;;;;;8330458;28;19929;-72
2022/06/27 07:20:37;;;;;;;;;;;18.30;99.90;;;;;;8332349;28;20148;-72
2022/06/27 07:24:42;;;;;;;;;;;18.30;99.90;;;;;;8313195;28;19925;-72
2022/06/27 07:28:44;;;;;;;;;;;18.40;99.90;;;;;;8332658;28;19929;-72
2022/06/27 07:32:46;;;;;;;;;;;18.40;99.90;;;;;;8329553;28;19932;-72
2022/06/27 07:36:48;;;;;;;;;;;18.40;99.90;;;;;;8328996;28;19929;-72
2022/06/27 07:40:49;;;;;;;;;;;18.50;99.90;;;;;;8329555;28;19921;-72
2022/06/27 07:44:51;;;;;;;;;;;18.50;99.90;;;;;;8325247;28;19944;-72
2022/06/27 07:48:53;;;;;;;;;;;18.60;99.90;;;;;;8333644;28;20384;-72
2022/06/27 07:53:14;;;;;;;;;;;18.60;99.90;;;;;;8321489;28;19936;-72
2022/06/27 07:57:17;;;;;;;;;;;18.70;99.90;;;;;;8330933;28;20392;-72
2022/06/27 08:01:19;;;;;;;;;;;18.80;99.90;;;;;;8330495;28;19924;-72
2022/06/27 08:05:21;;;;;;;;;;;18.80;99.90;;;;;;8334596;28;19932;-72
2022/06/27 08:09:23;;;;;;;;;;;18.90;99.90;;;;;;8328374;28;19929;-72
2022/06/27 08:13:26;;;;;;;;;;;19.00;99.90;;;;;;8325302;28;20317;-72
2022/06/27 08:17:29;;;;;;;;;;;19.00;99.90;;;;;;8342742;28;19928;-72
2022/06/27 08:21:31;;;;;;;;;;;19.00;99.90;;;;;;8335114;28;19927;-73
2022/06/27 08:25:34;;;;;;;;;;;19.00;99.90;;;;;;8330462;28;20685;-72
2022/06/27 08:29:35;;;;;;;;;;;19.00;99.90;;;;;;8341683;28;20656;-72
2022/06/27 08:33:41;;;;;;;;;;;19.00;99.90;;;;;;8344957;28;20213;-72
2022/06/27 08:37:43;;;;;;;;;;;19.10;99.90;;;;;;8338758;28;19929;-72
2022/06/27 08:41:46;;;;;;;;;;;19.10;99.90;;;;;;8322900;28;19933;-72
2022/06/27 08:45:50;;;;;;;;;;;19.20;99.90;;;;;;8338290;28;19925;-72
2022/06/27 08:49:52;;;;;;;;;;;19.20;99.90;;;;;;8340207;28;19975;-72
2022/06/27 08:53:54;;;;;;;;;;;19.20;99.90;;;;;;8341066;28;19928;-72
2022/06/27 08:57:59;;;;;;;;;;;19.30;99.90;;;;;;8324623;28;19951;-72
2022/06/27 09:02:01;;;;;;;;;;;19.20;99.90;;;;;;8343541;28;19939;-72
2022/06/27 09:06:04;;;;;;;;;;;19.20;99.90;;;;;;8343595;28;19964;-72
2022/06/27 09:10:42;;;;;;;;;;;19.20;99.90;;;;;;8341406;28;19921;-72
2022/06/27 09:14:44;;;;;;;;;;;19.20;99.90;;;;;;8280085;28;19925;-72
2022/06/27 09:18:46;;;;;;;;;;;19.20;99.90;;;;;;8341292;28;19921;-72
2022/06/27 09:22:49;;;;;;;;;;;19.20;99.90;;;;;;8322727;28;19921;-72
2022/06/27 09:26:51;;;;;;;;;;;19.30;99.90;;;;;;8341029;28;19927;-72
2022/06/27 09:30:53;;;;;;;;;;;19.30;99.90;;;;;;8319433;28;19924;-72
2022/06/27 09:34:54;;;;;;;;;;;19.40;99.90;;;;;;8338543;28;19921;-72
2022/06/27 09:38:57;;;;;;;;;;;19.40;99.90;;;;;;8338081;28;19921;-72
2022/06/27 09:42:59;;;;;;;;;;;19.50;99.90;;;;;;8337700;28;20261;-72
2022/06/27 09:47:01;;;;;;;;;;;19.50;99.90;;;;;;8337505;28;19924;-73
2022/06/27 09:51:03;;;;;;;;;;;19.60;99.90;;;;;;8342478;28;19960;-73
2022/06/27 09:55:09;;;;;;;;;;;19.60;99.90;;;;;;8338140;28;20319;-72
2022/06/27 09:59:11;;;;;;;;;;;19.70;99.90;;;;;;8338161;28;19951;-72
2022/06/27 10:03:13;;;;;;;;;;;19.70;99.90;;;;;;8337351;28;19929;-73
2022/06/27 10:07:16;;;;;;;;;;;19.80;99.90;;;;;;8338076;28;20372;-72
2022/06/27 10:11:19;;;;;;;;;;;19.80;99.90;;;;;;8341564;28;19948;-72
2022/06/27 10:15:22;;;;;;;;;;;19.90;99.90;;;;;;8335548;28;19933;-73
2022/06/27 10:19:25;;;;;;;;;;;19.90;99.90;;;;;;8336965;28;19955;-72
2022/06/27 10:23:28;;;;;;;;;;;19.90;99.90;;;;;;8330210;28;19943;-72
2022/06/27 10:27:31;;;;;;;;;;;20.00;99.90;;;;;;8341382;28;19978;-72
2022/06/27 10:31:45;;;;;;;;;;;20.00;99.90;;;;;;8343590;28;19925;-73
2022/06/27 10:35:59;;;;;;;;;;;20.00;99.90;;;;;;8318844;28;19975;-72
2022/06/27 10:40:19;;;;;;;;;;;20.00;99.90;;;;;;8328255;28;19925;-73
2022/06/27 10:44:31;;;;;;;;;;;20.00;99.90;;;;;;8341650;28;19921;-73
2022/06/27 10:48:34;;;;;;;;;;;20.10;99.90;;;;;;8338107;28;20372;-73
2022/06/27 10:52:36;;;;;;;;;;;20.20;99.90;;;;;;8340868;28;20295;-72
2022/06/27 10:56:41;;;;;;;;;;;20.20;99.90;;;;;;8338742;28;19980;-73
2022/06/27 11:00:43;;;;;;;;;;;20.30;99.90;;;;;;8331715;28;19929;-73
2022/06/27 11:04:45;;;;;;;;;;;20.30;99.90;;;;;;8334239;28;19921;-73
2022/06/27 11:08:48;;;;;;;;;;;20.30;99.90;;;;;;8337575;28;19932;-73
2022/06/27 11:12:55;;;;;;;;;;;20.30;99.90;;;;;;8336611;28;19921;-73
2022/06/27 11:16:57;;;;;;;;;;;20.20;99.90;;;;;;8339241;28;20540;-73
2022/06/27 11:20:59;;;;;;;;;;;20.10;99.90;;;;;;8340041;28;19983;-73
2022/06/27 11:25:01;;;;;;;;;;;20.10;99.90;;;;;;8339278;28;19921;-72
2022/06/27 11:33:25;;;;;;;;;;;20.10;99.90;;;;;;8337696;28;20043;-73
2022/06/27 11:37:28;;;;;;;;;;;20.10;99.90;;;;;;8338806;28;19921;-73
2022/06/27 11:41:33;;;;;;;;;;;20.10;99.90;;;;;;8342236;28;19921;-73
2022/06/27 11:45:39;;;;;;;;;;;20.10;99.90;;;;;;8344046;28;19932;-72
2022/06/27 11:49:40;;;;;;;;;;;20.10;99.90;;;;;;8344376;28;20366;-72
2022/06/27 11:53:51;;;;;;;;;;;20.10;99.90;;;;;;8344363;28;19924;-73
2022/06/27 11:57:54;;;;;;;;;;;20.00;99.90;;;;;;8319550;28;19925;-72
2022/06/27 12:02:03;;;;;;;;;;;20.00;99.90;;;;;;8340100;28;19921;-72
2022/06/27 12:06:14;;;;;;;;;;;19.90;99.90;;;;;;8323088;28;19939;-72
2022/06/27 12:10:16;;;;;;;;;;;19.80;99.90;;;;;;8342979;28;20849;-73
2022/06/27 12:14:18;;;;;;;;;;;19.70;99.90;;;;;;8342710;28;19928;-73
2022/06/27 12:18:20;;;;;;;;;;;19.50;99.90;;;;;;8341482;28;19952;-73
2022/06/27 12:22:21;;;;;;;;;;;19.50;99.90;;;;;;8339883;28;20299;-72
2022/06/27 12:26:43;;;;;;;;;;;19.30;99.90;;;;;;8335768;28;19935;-71
2022/06/27 12:30:45;;;;;;;;;;;19.00;99.90;;;;;;8336582;28;19969;-72
2022/06/27 12:34:49;;;;;;;;;;;18.70;99.90;;;;;;8334624;28;19929;-72
2022/06/27 12:38:51;;;;;;;;;;;18.40;99.90;;;;;;8335530;28;19921;-73
2022/06/27 12:42:52;;;;;;;;;;;18.30;99.90;;;;;;8317175;28;19929;-73
2022/06/27 12:46:54;;;;;;;;;;;18.20;99.90;;;;;;8336715;28;19934;-71
2022/06/27 12:50:58;;;;;;;;;;;18.10;99.90;;;;;;8317658;28;19921;-73
2022/06/27 12:55:00;;;;;;;;;;;18.10;99.90;;;;;;8332581;28;19928;-72
2022/06/27 12:59:02;;;;;;;;;;;18.10;99.90;;;;;;8338820;28;20008;-72
2022/06/27 13:03:04;;;;;;;;;;;18.10;99.90;;;;;;8336157;28;19929;-72
2022/06/27 13:07:10;;;;;;;;;;;18.00;99.90;;;;;;8332843;28;20435;-73
2022/06/27 13:11:11;;;;;;;;;;;18.00;99.90;;;;;;8337773;28;19931;-72
2022/06/27 13:15:15;;;;;;;;;;;18.00;99.90;;;;;;8326876;28;20007;-72
2022/06/27 13:19:16;;;;;;;;;;;18.00;99.90;;;;;;8325352;28;19924;-72
2022/06/27 13:23:18;;;;;;;;;;;18.00;99.90;;;;;;8325223;28;20027;-73
2022/06/27 13:27:20;;;;;;;;;;;18.00;99.90;;;;;;8322820;28;19980;-72
2022/06/27 13:31:22;;;;;;;;;;;17.90;99.90;;;;;;8324527;28;19936;-72
2022/06/27 13:35:24;;;;;;;;;;;17.80;99.90;;;;;;8323386;28;19929;-73
2022/06/27 13:39:26;;;;;;;;;;;17.70;99.90;;;;;;8327518;28;19936;-73
2022/06/27 13:43:28;;;;;;;;;;;17.50;99.90;;;;;;8337328;28;20047;-73
2022/06/27 13:47:30;;;;;;;;;;;17.40;99.90;;;;;;8314790;28;19921;-73
2022/06/27 13:51:32;;;;;;;;;;;17.40;99.90;;;;;;8329649;28;19924;-72
2022/06/27 13:55:36;;;;;;;;;;;17.40;99.90;;;;;;8326901;28;20395;-72
2022/06/27 13:59:38;;;;;;;;;;;17.30;99.90;;;;;;8326447;28;20364;-72
2022/06/27 14:03:39;;;;;;;;;;;17.30;99.90;;;;;;8337061;28;19928;-73
2022/06/27 14:07:44;;;;;;;;;;;17.20;99.90;;;;;;8313285;28;19959;-72
2022/06/27 14:11:45;;;;;;;;;;;17.20;99.90;;;;;;8326583;28;19932;-72
2022/06/27 14:15:47;;;;;;;;;;;16.90;99.90;;;;;;8325889;28;19948;-72
2022/06/27 14:19:49;;;;;;;;;;;16.80;99.90;;;;;;8325939;28;20428;-72
2022/06/27 14:23:51;;;;;;;;;;;16.50;99.90;;;;;;8322109;28;19921;-72
2022/06/27 14:27:52;;;;;;;;;;;16.50;99.90;;;;;;8323409;28;19921;-72
2022/06/27 14:31:54;;;;;;;;;;;16.40;99.90;;;;;;8328141;28;19929;-72
2022/06/27 14:35:56;;;;;;;;;;;16.30;99.90;;;;;;8328456;28;20268;-72
2022/06/27 14:40:04;;;;;;;;;;;16.30;99.90;;;;;;8325209;28;19932;-72
2022/06/27 14:44:06;;;;;;;;;;;16.30;99.90;;;;;;8323391;28;20277;-72
2022/06/27 14:48:08;;;;;;;;;;;16.40;99.90;;;;;;8325464;28;20331;-72
2022/06/27 14:52:09;;;;;;;;;;;16.40;99.90;;;;;;8302584;28;20303;-72
2022/06/27 14:56:11;;;;;;;;;;;16.40;99.90;;;;;;8325914;28;19928;-72
2022/06/27 15:00:13;;;;;;;;;;;16.50;99.90;;;;;;8340337;28;19924;-72
2022/06/27 15:04:20;;;;;;;;;;;16.60;99.90;;;;;;8310594;28;19921;-72
2022/06/27 15:08:21;;;;;;;;;;;16.70;99.90;;;;;;8333490;28;19940;-72
2022/06/27 15:12:23;;;;;;;;;;;16.80;99.90;;;;;;8324529;28;19928;-72
2022/06/27 15:16:26;;;;;;;;;;;17.00;99.90;;;;;;8332770;28;19929;-72
2022/06/27 15:20:28;;;;;;;;;;;17.10;99.90;;;;;;8312937;28;19928;-73
2022/06/27 15:24:30;;;;;;;;;;;17.20;99.90;;;;;;8329279;28;19921;-72
2022/06/27 15:28:31;;;;;;;;;;;17.40;99.90;;;;;;8328929;28;19928;-72
2022/06/27 15:32:34;;;;;;;;;;;17.50;99.90;;;;;;8325590;28;20019;-72
2022/06/27 15:36:36;;;;;;;;;;;17.80;99.90;;;;;;8328939;28;19967;-72
2022/06/27 15:40:38;;;;;;;;;;;18.00;99.90;;;;;;8330200;28;19945;-72
2022/06/27 15:44:39;;;;;;;;;;;18.00;99.90;;;;;;8327367;28;20005;-72
2022/06/27 15:48:41;;;;;;;;;;;17.90;99.90;;;;;;8327716;28;20332;-72
2022/06/27 15:52:43;;;;;;;;;;;17.80;99.90;;;;;;8322767;28;19936;-72
2022/06/27 15:56:45;;;;;;;;;;;17.70;99.90;;;;;;8317056;28;20015;-73
2022/06/27 16:00:47;;;;;;;;;;;17.70;99.90;;;;;;8329086;28;19924;-72
2022/06/27 16:04:48;;;;;;;;;;;17.60;99.90;;;;;;8328745;28;20446;-72
2022/06/27 16:08:50;;;;;;;;;;;17.70;99.90;;;;;;8325132;28;19924;-72
2022/06/27 16:12:53;;;;;;;;;;;18.00;99.90;;;;;;8328270;28;19921;-72
2022/06/27 16:16:54;;;;;;;;;;;18.50;99.90;;;;;;8327917;28;19929;-73
2022/06/27 16:21:02;;;;;;;;;;;18.90;99.90;;;;;;8342546;28;20641;-72
2022/06/27 16:25:04;;;;;;;;;;;19.40;99.90;;;;;;8329620;28;19948;-72
2022/06/27 16:29:05;;;;;;;;;;;19.70;99.90;;;;;;8326680;28;19924;-73
2022/06/27 16:33:07;;;;;;;;;;;20.20;99.90;;;;;;8329727;28;19928;-72
2022/06/27 16:37:09;;;;;;;;;;;20.70;99.90;;;;;;8322470;28;19948;-72
2022/06/27 16:41:11;;;;;;;4.38;2.00;;;21.10;99.90;;;;;;8326581;28;19928;-72
2022/06/27 16:45:12;;;;;;;;;;;21.40;99.90;;;;;;8323347;28;20505;-72
2022/06/27 16:49:14;;;;;;;;;;;21.80;99.90;;;;;;8320586;28;20261;-72
2022/06/27 16:53:31;;;;;;;;;;;22.10;99.90;;;;;;8326450;28;19963;-72
2022/06/27 16:57:32;;;;;;;;;;;22.30;99.90;;;;;;8325001;28;20260;-72
2022/06/27 17:01:34;;;;;;;;;;;22.30;99.90;;;;;;8325692;28;20366;-72
2022/06/27 17:05:36;;;;;;;;;;;22.30;99.90;;;;;;8322202;28;19921;-72
2022/06/27 17:09:38;;;;;;;;;;;22.00;99.90;;;;;;8329683;28;19928;-72
2022/06/27 17:13:40;;;;;;;;;;;21.60;99.90;;;;;;8323354;28;19925;-72
2022/06/27 17:17:41;;;;;;;;;;;21.40;99.90;;;;;;8305887;28;20509;-72
2022/06/27 17:21:44;;;;;;;;;;;21.50;99.90;;;;;;8331570;28;21073;-72
2022/06/27 17:25:46;;;;;;;;;;;21.60;99.90;;;;;;8302950;28;20446;-73
2022/06/27 17:29:48;;;;;;;;;;;21.50;99.90;;;;;;8322568;28;19925;-72
2022/06/27 17:33:53;;;;;;;;;;;21.30;99.90;;;;;;8324359;28;19961;-72
2022/06/27 17:37:55;;;;;;;;;;;21.00;99.90;;;;;;8322488;28;19928;-72
2022/06/27 17:41:56;;;;;;;;;;;20.60;99.90;;;;;;8319035;28;20092;-72
2022/06/27 17:45:58;;;;;;;;;;;20.30;99.90;;;;;;8319049;28;19921;-72
2022/06/27 17:50:01;;;;;;;;;;;20.00;99.90;;;;;;8327756;28;19925;-72
2022/06/27 17:54:03;;;;;;;;;;;19.80;99.90;;;;;;8329329;28;19952;-72
2022/06/27 17:58:04;;;;;;;;;;;19.70;99.90;;;;;;8330257;28;19925;-72
2022/06/27 18:02:07;;;;;;;;;;;19.60;99.90;;;;;;8324014;28;20020;-72
2022/06/27 18:06:10;;;;;;;;;;;19.50;99.90;;;;;;8325291;28;19921;-72
2022/06/27 18:10:12;;;;;;;;;;;19.50;99.90;;;;;;8326300;28;19921;-72
2022/06/27 18:14:15;;;;;;;;;;;19.50;99.90;;;;;;8320980;28;19984;-72
2022/06/27 18:18:16;;;;;;;;;;;19.50;99.90;;;;;;8304545;28;19932;-72
2022/06/27 18:22:18;;;;;;;;;;;19.50;99.90;;;;;;8321156;28;20903;-72
2022/06/27 18:26:23;;;;;;;;;;;19.50;99.90;;;;;;8320757;28;20357;-74
2022/06/27 18:30:25;;;;;;;;;;;19.50;99.90;;;;;;8320141;28;19928;-72
2022/06/27 18:34:46;;;;;;;;;;;19.40;99.90;;;;;;8320266;28;19929;-73
2022/06/27 18:38:49;;;;;;;;;;;19.40;99.90;;;;;;8325553;28;19939;-73
2022/06/27 18:42:52;;;;;;;;;;;19.30;99.90;;;;;;8326602;28;20280;-73
2022/06/27 18:46:54;;;;;;;;;;;19.30;99.90;;;;;;8318985;28;20027;-73
2022/06/27 18:50:55;;;;;;;;;;;19.30;99.90;;;;;;8320476;28;19929;-73
2022/06/27 18:54:57;;;;;;;;;;;19.20;99.90;;;;;;8311182;28;19931;-72
2022/06/27 18:58:59;;;;;;;;;;;19.20;99.90;;;;;;8323275;28;19929;-73
2022/06/27 19:03:00;;;;;;;;;;;19.20;99.90;;;;;;8332691;28;19928;-73
2022/06/27 19:07:02;;;;;;;;;;;19.10;99.90;;;;;;8307363;28;19935;-72
2022/06/27 19:11:04;;;;;;;;;;;19.00;99.90;;;;;;8321822;28;19928;-72
2022/06/27 19:15:06;;;;;;;;;;;19.00;99.90;;;;;;8324711;28;19964;-72
2022/06/27 19:19:08;;;;;;;;;;;18.80;99.90;;;;;;8323977;28;19929;-72
2022/06/27 19:23:10;;;;;;;;;;;18.70;99.90;;;;;;8322535;28;19921;-72
2022/06/27 19:27:12;;;;;;;;;;;18.70;99.90;;;;;;8323265;28;20015;-72
2022/06/27 19:31:13;;;;;;;;;;;18.60;99.90;;;;;;8324254;28;19971;-72
2022/06/27 19:35:15;;;;;;;;;;;18.50;99.90;;;;;;8323381;28;19932;-72
2022/06/27 19:39:17;;;;;;;;;;;18.40;99.90;;;;;;8320638;28;19928;-73
2022/06/27 19:43:19;;;;;;;;;;;18.40;99.90;;;;;;8319664;28;19980;-73
2022/06/27 19:47:20;;;;;;;;;;;18.30;99.90;;;;;;8317804;28;19976;-72
2022/06/27 19:51:22;;;;;;;;;;;18.30;99.90;;;;;;8325877;28;19960;-73
2022/06/27 19:55:24;;;;;;;;;;;18.20;99.90;;;;;;8333448;28;19930;-72
2022/06/27 19:59:25;;;;;;;;;;;18.10;99.90;;;;;;8331310;28;19924;-72
2022/06/27 20:03:27;;;;;;;;;;;18.00;99.90;;;;;;8332928;28;19939;-72
2022/06/27 20:07:31;;;;;;;;;;;17.90;99.90;;;;;;8332782;28;19920;-72
2022/06/27 20:11:32;;;;;;;;;;;17.80;99.90;;;;;;8329555;28;20385;-72
2022/06/27 20:15:34;;;;;;;;;;;17.80;99.90;;;;;;8332348;28;19921;-72
2022/06/27 20:19:36;;;;;;;;;;;17.70;99.90;;;;;;8329195;28;19951;-72
2022/06/27 20:23:38;;;;;;;;;;;17.70;99.90;;;;;;8331986;28;19955;-73
2022/06/27 20:27:41;;;;;;;;;;;17.60;99.90;;;;;;8322242;28;19964;-72
2022/06/27 20:31:42;;;;;;;;;;;17.50;99.90;;;;;;8310678;28;19935;-72
2022/06/27 20:35:44;;;;;;;;;;;17.50;99.90;;;;;;8329884;28;19986;-72
2022/06/27 20:39:46;;;;;;;;;;;17.40;99.90;;;;;;8322236;28;19924;-72
2022/06/27 20:43:48;;;;;;;;;;;17.30;99.90;;;;;;8329221;28;20411;-72
2022/06/27 20:47:50;;;;;;;;;;;17.20;99.90;;;;;;8329361;28;19928;-72
2022/06/27 20:51:52;;;;;;;;;;;17.20;99.90;;;;;;8328915;28;19928;-72
2022/06/27 20:55:53;;;;;;;;;;;17.10;99.90;;;;;;8323141;28;19927;-73
2022/06/27 20:59:55;;;;;;;;;;;17.00;99.90;;;;;;8308246;28;19925;-72
2022/06/27 21:03:57;;;;;;;;;;;17.00;99.90;;;;;;8352606;28;19927;-72
2022/06/27 21:12:19;;;;;;;;;;;16.80;99.90;;;;;;8336046;28;19928;-72
2022/06/27 21:16:21;;;;;;;;;;;16.80;99.90;;;;;;8367207;28;20402;-72
2022/06/27 21:20:24;;;;;;;;;;;16.70;99.90;;;;;;8351115;28;19971;-72
2022/06/27 21:24:26;;;;;;;;;;;16.60;99.90;;;;;;8362943;28;19929;-72
2022/06/27 21:28:27;;;;;;;;;;;16.60;99.90;;;;;;8355882;28;19932;-73
2022/06/27 21:32:30;;;;;;;;;;;16.60;99.90;;;;;;8344710;28;19925;-73
2022/06/27 21:36:33;;;;;;;;;;;16.50;99.90;;;;;;8336937;28;19925;-72
2022/06/27 21:40:35;;;;;;;;;;;16.50;99.90;;;;;;8324940;28;19929;-72
2022/06/27 21:44:37;;;;;;;;;;;16.50;99.90;;;;;;8351198;28;20281;-72
2022/06/27 21:48:38;;;;;;;;;;;16.50;99.90;;;;;;8360580;28;19928;-72
2022/06/27 21:52:40;;;;;;;;;;;16.40;99.90;;;;;;8357638;28;20368;-72
2022/06/27 21:56:42;;;;;;;;;;;16.40;99.90;;;;;;8351260;28;19974;-72
2022/06/27 22:00:46;;;;;;;;;;;16.30;99.90;;;;;;8340012;28;19928;-72
2022/06/27 22:04:48;;;;;;;;;;;16.30;99.90;;;;;;8349314;28;19920;-72
2022/06/27 22:08:49;;;;;;;;;;;16.30;99.90;;;;;;8346668;28;19936;-72
2022/06/27 22:12:52;;;;;;;;;;;16.20;99.90;;;;;;8355617;28;19929;-72
2022/06/27 22:16:55;;;;;;;;;;;16.10;99.90;;;;;;8348920;28;20283;-72
2022/06/27 22:20:57;;;;;;;;;;;16.00;99.90;;;;;;8355608;28;19964;-72
2022/06/27 22:24:58;;;;;;;;;;;16.00;99.90;;;;;;8328543;28;19944;-72
2022/06/27 22:29:00;;;;;;;;;;;16.00;99.90;;;;;;8358411;28;19925;-72
2022/06/27 22:33:03;;;;;;;;;;;15.90;99.90;;;;;;8349102;28;19959;-72
2022/06/27 22:37:04;;;;;;;;;;;15.90;99.90;;;;;;8337019;28;19925;-72
2022/06/27 22:41:06;;;;;;;;;;;15.90;99.90;;;;;;8339828;28;20280;-72
2022/06/27 22:45:08;;;;;;;;;;;15.90;99.90;;;;;;8354519;28;20381;-72
2022/06/27 22:49:09;;;;;;;;;;;15.80;99.90;;;;;;8355088;28;19927;-72
2022/06/27 22:53:11;;;;;;;;;;;15.70;99.90;;;;;;8345605;28;19920;-72
2022/06/27 22:57:13;;;;;;;;;;;15.70;99.90;;;;;;8361090;28;19931;-72
2022/06/27 23:01:14;;;;;;;;;;;15.60;99.90;;;;;;8329674;28;19921;-73
2022/06/27 23:05:18;;;;;;;;;;;15.60;99.90;;;;;;8338664;28;19948;-72
2022/06/27 23:09:20;;;;;;;;;;;15.50;99.90;;;;;;8323572;28;19921;-72
2022/06/27 23:13:21;;;;;;;;;;;15.50;99.90;;;;;;8344203;28;19928;-72
2022/06/27 23:17:26;;;;;;;;;;;15.50;99.90;;;;;;8356712;28;19931;-72
2022/06/27 23:21:28;;;;;;;;;;;15.40;99.90;;;;;;8360752;28;20386;-72
2022/06/27 23:25:30;;;;;;;;;;;15.40;99.90;;;;;;8339424;28;20411;-72
2022/06/27 23:29:31;;;;;;;;;;;15.30;99.90;;;;;;8333701;28;20368;-72
2022/06/27 23:33:33;;;;;;;;;;;15.30;99.90;;;;;;8336699;28;19928;-72
2022/06/27 23:37:34;;;;;;;;;;;15.20;99.90;;;;;;8357470;28;20211;-72
2022/06/27 23:41:36;;;;;;;;;;;15.20;99.90;;;;;;8333986;28;19928;-72